sensor_id;sensor_type;location;lat;lon;timestamp;P1;durP1;ratioP1;P2;durP2;ratioP2
8632;SDS011;4354;49.832;10.746;2023-08-21T00:01:47;20.02;;;15.85;;
8632;SDS011;4354;49.832;10.746;2023-08-21T00:04:14;19.90;;;16.45;;
8632;SDS011;4354;49.832;10.746;2023-08-21T00:06:41;16.95;;;15.40;;
8632;SDS011;4354;49.832;10.746;2023-08-21T00:09:09;18.20;;;16.45;;
8632;SDS011;4354;49.832;10.746;2023-08-21T00:11:35;17.92;;;16.23;;
8632;SDS011;4354;49.832;10.746;2023-08-21T00:14:02;17.83;;;16.23;;
8632;SDS011;4354;49.832;10.746;2023-08-21T00:16:29;18.60;;;16.73;;
8632;SDS011;4354;49.832;10.746;2023-08-21T00:18:56;18.50;;;16.70;;
8632;SDS011;4354;49.832;10.746;2023-08-21T00:21:23;21.90;;;18.55;;
8632;SDS011;4354;49.832;10.746;2023-08-21T00:23:50;18.58;;;16.90;;
8632;SDS011;4354;49.832;10.746;2023-08-21T00:26:16;20.80;;;18.45;;
8632;SDS011;4354;49.832;10.746;2023-08-21T00:28:43;19.58;;;17.67;;
8632;SDS011;4354;49.832;10.746;2023-08-21T00:31:10;19.25;;;17.40;;
8632;SDS011;4354;49.832;10.746;2023-08-21T00:33:39;20.98;;;18.90;;
8632;SDS011;4354;49.832;10.746;2023-08-21T00:36:06;20.52;;;18.42;;
8632;SDS011;4354;49.832;10.746;2023-08-21T00:38:32;19.63;;;17.92;;
8632;SDS011;4354;49.832;10.746;2023-08-21T00:40:59;20.45;;;17.60;;
8632;SDS011;4354;49.832;10.746;2023-08-21T00:43:26;20.35;;;18.17;;
8632;SDS011;4354;49.832;10.746;2023-08-21T00:45:53;21.83;;;19.60;;
8632;SDS011;4354;49.832;10.746;2023-08-21T00:48:20;20.33;;;18.02;;
8632;SDS011;4354;49.832;10.746;2023-08-21T00:50:47;19.90;;;17.77;;
8632;SDS011;4354;49.832;10.746;2023-08-21T00:53:15;18.88;;;16.88;;
8632;SDS011;4354;49.832;10.746;2023-08-21T00:55:42;18.17;;;16.38;;
8632;SDS011;4354;49.832;10.746;2023-08-21T00:58:13;20.15;;;18.27;;
8632;SDS011;4354;49.832;10.746;2023-08-21T01:00:41;21.10;;;19.13;;
8632;SDS011;4354;49.832;10.746;2023-08-21T01:03:11;19.85;;;17.77;;
8632;SDS011;4354;49.832;10.746;2023-08-21T01:05:38;19.77;;;17.98;;
8632;SDS011;4354;49.832;10.746;2023-08-21T01:08:21;21.88;;;19.48;;
8632;SDS011;4354;49.832;10.746;2023-08-21T01:11:01;22.20;;;19.85;;
8632;SDS011;4354;49.832;10.746;2023-08-21T01:16:07;20.48;;;18.58;;
8632;SDS011;4354;49.832;10.746;2023-08-21T01:18:36;21.23;;;19.23;;
8632;SDS011;4354;49.832;10.746;2023-08-21T01:21:05;20.83;;;18.80;;
8632;SDS011;4354;49.832;10.746;2023-08-21T01:23:33;20.90;;;18.80;;
8632;SDS011;4354;49.832;10.746;2023-08-21T01:26:03;22.23;;;19.95;;
8632;SDS011;4354;49.832;10.746;2023-08-21T01:28:32;22.30;;;19.95;;
8632;SDS011;4354;49.832;10.746;2023-08-21T01:33:41;20.33;;;18.10;;
8632;SDS011;4354;49.832;10.746;2023-08-21T01:36:14;19.30;;;17.48;;
8632;SDS011;4354;49.832;10.746;2023-08-21T01:38:41;19.15;;;17.27;;
8632;SDS011;4354;49.832;10.746;2023-08-21T01:41:12;19.98;;;17.95;;
8632;SDS011;4354;49.832;10.746;2023-08-21T01:43:39;20.10;;;17.98;;
8632;SDS011;4354;49.832;10.746;2023-08-21T01:46:05;20.25;;;18.15;;
8632;SDS011;4354;49.832;10.746;2023-08-21T01:48:33;24.48;;;20.20;;
8632;SDS011;4354;49.832;10.746;2023-08-21T01:51:00;21.90;;;19.95;;
8632;SDS011;4354;49.832;10.746;2023-08-21T01:53:28;22.27;;;20.20;;
8632;SDS011;4354;49.832;10.746;2023-08-21T01:55:55;23.10;;;20.77;;
8632;SDS011;4354;49.832;10.746;2023-08-21T01:58:22;21.85;;;19.65;;
8632;SDS011;4354;49.832;10.746;2023-08-21T02:00:50;22.60;;;20.13;;
8632;SDS011;4354;49.832;10.746;2023-08-21T02:03:17;22.83;;;20.58;;
8632;SDS011;4354;49.832;10.746;2023-08-21T02:05:44;24.80;;;22.17;;
8632;SDS011;4354;49.832;10.746;2023-08-21T02:08:13;23.90;;;21.50;;
8632;SDS011;4354;49.832;10.746;2023-08-21T02:10:50;26.35;;;22.67;;
8632;SDS011;4354;49.832;10.746;2023-08-21T02:13:19;24.33;;;21.88;;
8632;SDS011;4354;49.832;10.746;2023-08-21T02:15:46;24.98;;;22.58;;
8632;SDS011;4354;49.832;10.746;2023-08-21T02:18:13;24.55;;;22.13;;
8632;SDS011;4354;49.832;10.746;2023-08-21T02:20:40;24.63;;;22.23;;
8632;SDS011;4354;49.832;10.746;2023-08-21T02:23:07;26.02;;;23.52;;
8632;SDS011;4354;49.832;10.746;2023-08-21T02:25:34;23.60;;;21.30;;
8632;SDS011;4354;49.832;10.746;2023-08-21T02:28:01;26.15;;;23.50;;
8632;SDS011;4354;49.832;10.746;2023-08-21T02:30:30;24.95;;;22.30;;
8632;SDS011;4354;49.832;10.746;2023-08-21T02:32:57;29.17;;;26.08;;
8632;SDS011;4354;49.832;10.746;2023-08-21T02:35:24;27.23;;;24.63;;
8632;SDS011;4354;49.832;10.746;2023-08-21T02:37:51;27.70;;;24.98;;
8632;SDS011;4354;49.832;10.746;2023-08-21T02:40:19;26.52;;;23.80;;
8632;SDS011;4354;49.832;10.746;2023-08-21T02:42:46;25.98;;;23.38;;
8632;SDS011;4354;49.832;10.746;2023-08-21T02:45:13;25.83;;;23.23;;
8632;SDS011;4354;49.832;10.746;2023-08-21T02:47:40;26.92;;;24.23;;
8632;SDS011;4354;49.832;10.746;2023-08-21T02:50:09;27.02;;;24.42;;
8632;SDS011;4354;49.832;10.746;2023-08-21T02:52:36;28.10;;;25.17;;
8632;SDS011;4354;49.832;10.746;2023-08-21T02:55:04;27.95;;;24.30;;
8632;SDS011;4354;49.832;10.746;2023-08-21T02:57:32;29.10;;;26.02;;
8632;SDS011;4354;49.832;10.746;2023-08-21T03:00:00;29.65;;;25.23;;
8632;SDS011;4354;49.832;10.746;2023-08-21T03:02:27;27.23;;;24.50;;
8632;SDS011;4354;49.832;10.746;2023-08-21T03:04:56;26.65;;;24.23;;
8632;SDS011;4354;49.832;10.746;2023-08-21T03:07:22;28.88;;;25.83;;
8632;SDS011;4354;49.832;10.746;2023-08-21T03:09:52;29.52;;;26.52;;
8632;SDS011;4354;49.832;10.746;2023-08-21T03:12:18;28.40;;;25.45;;
8632;SDS011;4354;49.832;10.746;2023-08-21T03:14:45;29.35;;;26.23;;
8632;SDS011;4354;49.832;10.746;2023-08-21T03:17:12;28.50;;;25.05;;
8632;SDS011;4354;49.832;10.746;2023-08-21T03:19:40;28.15;;;25.17;;
8632;SDS011;4354;49.832;10.746;2023-08-21T03:22:07;29.48;;;26.10;;
8632;SDS011;4354;49.832;10.746;2023-08-21T03:24:34;27.38;;;24.70;;
8632;SDS011;4354;49.832;10.746;2023-08-21T03:27:01;27.67;;;24.98;;
8632;SDS011;4354;49.832;10.746;2023-08-21T03:29:28;27.42;;;24.52;;
8632;SDS011;4354;49.832;10.746;2023-08-21T03:31:55;26.83;;;24.05;;
8632;SDS011;4354;49.832;10.746;2023-08-21T03:34:22;26.00;;;23.48;;
8632;SDS011;4354;49.832;10.746;2023-08-21T03:36:49;28.48;;;25.05;;
8632;SDS011;4354;49.832;10.746;2023-08-21T03:39:17;28.90;;;25.88;;
8632;SDS011;4354;49.832;10.746;2023-08-21T03:41:44;28.83;;;25.73;;
8632;SDS011;4354;49.832;10.746;2023-08-21T03:44:11;29.15;;;26.27;;
8632;SDS011;4354;49.832;10.746;2023-08-21T03:46:38;27.48;;;24.55;;
8632;SDS011;4354;49.832;10.746;2023-08-21T03:49:05;28.80;;;25.98;;
8632;SDS011;4354;49.832;10.746;2023-08-21T03:51:32;29.98;;;26.90;;
8632;SDS011;4354;49.832;10.746;2023-08-21T03:53:58;31.13;;;27.85;;
8632;SDS011;4354;49.832;10.746;2023-08-21T03:56:25;31.50;;;28.35;;
8632;SDS011;4354;49.832;10.746;2023-08-21T03:58:52;30.27;;;26.80;;
8632;SDS011;4354;49.832;10.746;2023-08-21T04:01:19;31.35;;;28.15;;
8632;SDS011;4354;49.832;10.746;2023-08-21T04:03:46;30.67;;;27.60;;
8632;SDS011;4354;49.832;10.746;2023-08-21T04:06:13;30.30;;;27.40;;
8632;SDS011;4354;49.832;10.746;2023-08-21T04:08:39;31.25;;;28.05;;
8632;SDS011;4354;49.832;10.746;2023-08-21T04:11:06;31.10;;;28.13;;
8632;SDS011;4354;49.832;10.746;2023-08-21T04:13:33;30.52;;;27.42;;
8632;SDS011;4354;49.832;10.746;2023-08-21T04:16:00;30.23;;;27.10;;
8632;SDS011;4354;49.832;10.746;2023-08-21T04:18:27;29.85;;;26.73;;
8632;SDS011;4354;49.832;10.746;2023-08-21T04:21:06;28.83;;;25.90;;
8632;SDS011;4354;49.832;10.746;2023-08-21T04:23:33;31.75;;;28.33;;
8632;SDS011;4354;49.832;10.746;2023-08-21T04:26:00;30.98;;;27.88;;
8632;SDS011;4354;49.832;10.746;2023-08-21T04:28:31;30.38;;;27.25;;
8632;SDS011;4354;49.832;10.746;2023-08-21T04:31:00;31.02;;;27.77;;
8632;SDS011;4354;49.832;10.746;2023-08-21T04:33:30;30.15;;;27.02;;
8632;SDS011;4354;49.832;10.746;2023-08-21T04:35:58;29.58;;;26.48;;
8632;SDS011;4354;49.832;10.746;2023-08-21T04:38:25;28.35;;;25.48;;
8632;SDS011;4354;49.832;10.746;2023-08-21T04:40:52;29.83;;;26.60;;
8632;SDS011;4354;49.832;10.746;2023-08-21T04:43:19;29.25;;;26.25;;
8632;SDS011;4354;49.832;10.746;2023-08-21T04:45:47;29.92;;;26.83;;
8632;SDS011;4354;49.832;10.746;2023-08-21T04:48:19;28.95;;;25.83;;
8632;SDS011;4354;49.832;10.746;2023-08-21T04:50:47;28.15;;;25.38;;
8632;SDS011;4354;49.832;10.746;2023-08-21T04:53:14;27.30;;;24.65;;
8632;SDS011;4354;49.832;10.746;2023-08-21T04:55:43;27.85;;;25.15;;
8632;SDS011;4354;49.832;10.746;2023-08-21T04:58:10;28.10;;;25.30;;
8632;SDS011;4354;49.832;10.746;2023-08-21T05:00:37;25.98;;;23.48;;
8632;SDS011;4354;49.832;10.746;2023-08-21T05:03:05;28.23;;;25.50;;
8632;SDS011;4354;49.832;10.746;2023-08-21T05:05:35;28.60;;;25.67;;
8632;SDS011;4354;49.832;10.746;2023-08-21T05:08:03;25.13;;;22.63;;
8632;SDS011;4354;49.832;10.746;2023-08-21T05:10:30;26.55;;;24.08;;
8632;SDS011;4354;49.832;10.746;2023-08-21T05:12:56;26.80;;;24.30;;
8632;SDS011;4354;49.832;10.746;2023-08-21T05:15:24;26.77;;;24.30;;
8632;SDS011;4354;49.832;10.746;2023-08-21T05:17:51;25.95;;;23.30;;
8632;SDS011;4354;49.832;10.746;2023-08-21T05:20:17;27.73;;;24.83;;
8632;SDS011;4354;49.832;10.746;2023-08-21T05:22:44;25.85;;;23.38;;
8632;SDS011;4354;49.832;10.746;2023-08-21T05:25:11;26.55;;;23.75;;
8632;SDS011;4354;49.832;10.746;2023-08-21T05:27:38;25.90;;;23.40;;
8632;SDS011;4354;49.832;10.746;2023-08-21T05:30:05;24.48;;;22.08;;
8632;SDS011;4354;49.832;10.746;2023-08-21T05:32:32;27.60;;;24.65;;
8632;SDS011;4354;49.832;10.746;2023-08-21T05:35:00;26.70;;;24.05;;
8632;SDS011;4354;49.832;10.746;2023-08-21T05:37:27;25.27;;;23.08;;
8632;SDS011;4354;49.832;10.746;2023-08-21T05:39:53;27.17;;;24.50;;
8632;SDS011;4354;49.832;10.746;2023-08-21T05:42:20;26.55;;;23.98;;
8632;SDS011;4354;49.832;10.746;2023-08-21T05:44:47;26.05;;;23.23;;
8632;SDS011;4354;49.832;10.746;2023-08-21T05:47:14;26.63;;;23.92;;
8632;SDS011;4354;49.832;10.746;2023-08-21T05:49:40;26.23;;;23.63;;
8632;SDS011;4354;49.832;10.746;2023-08-21T05:52:08;26.08;;;23.55;;
8632;SDS011;4354;49.832;10.746;2023-08-21T05:54:35;25.98;;;23.67;;
8632;SDS011;4354;49.832;10.746;2023-08-21T05:57:02;26.70;;;24.25;;
8632;SDS011;4354;49.832;10.746;2023-08-21T05:59:30;25.50;;;23.33;;
8632;SDS011;4354;49.832;10.746;2023-08-21T06:01:58;26.00;;;23.40;;
8632;SDS011;4354;49.832;10.746;2023-08-21T06:04:25;25.23;;;22.35;;
8632;SDS011;4354;49.832;10.746;2023-08-21T06:06:53;23.52;;;21.33;;
8632;SDS011;4354;49.832;10.746;2023-08-21T06:09:20;24.90;;;22.60;;
8632;SDS011;4354;49.832;10.746;2023-08-21T06:11:48;26.98;;;24.20;;
8632;SDS011;4354;49.832;10.746;2023-08-21T06:14:14;25.63;;;23.08;;
8632;SDS011;4354;49.832;10.746;2023-08-21T06:16:41;26.10;;;23.40;;
8632;SDS011;4354;49.832;10.746;2023-08-21T06:19:10;26.27;;;23.30;;
8632;SDS011;4354;49.832;10.746;2023-08-21T06:21:36;25.45;;;22.95;;
8632;SDS011;4354;49.832;10.746;2023-08-21T06:24:03;26.92;;;23.45;;
8632;SDS011;4354;49.832;10.746;2023-08-21T06:26:30;23.77;;;21.58;;
8632;SDS011;4354;49.832;10.746;2023-08-21T06:28:57;23.73;;;21.52;;
8632;SDS011;4354;49.832;10.746;2023-08-21T06:31:24;25.00;;;22.60;;
8632;SDS011;4354;49.832;10.746;2023-08-21T06:33:51;23.88;;;21.45;;
8632;SDS011;4354;49.832;10.746;2023-08-21T06:36:18;22.55;;;20.40;;
8632;SDS011;4354;49.832;10.746;2023-08-21T06:38:44;23.23;;;21.13;;
8632;SDS011;4354;49.832;10.746;2023-08-21T06:41:11;22.42;;;20.45;;
8632;SDS011;4354;49.832;10.746;2023-08-21T06:43:38;21.67;;;19.88;;
8632;SDS011;4354;49.832;10.746;2023-08-21T06:46:10;22.77;;;20.48;;
8632;SDS011;4354;49.832;10.746;2023-08-21T06:48:38;21.98;;;19.98;;
8632;SDS011;4354;49.832;10.746;2023-08-21T06:51:07;20.55;;;18.75;;
8632;SDS011;4354;49.832;10.746;2023-08-21T06:53:34;19.45;;;17.60;;
8632;SDS011;4354;49.832;10.746;2023-08-21T06:56:01;18.48;;;16.70;;
8632;SDS011;4354;49.832;10.746;2023-08-21T06:58:28;18.50;;;16.67;;
8632;SDS011;4354;49.832;10.746;2023-08-21T07:00:55;18.25;;;16.55;;
8632;SDS011;4354;49.832;10.746;2023-08-21T07:03:23;17.50;;;15.45;;
8632;SDS011;4354;49.832;10.746;2023-08-21T07:05:53;16.58;;;15.18;;
8632;SDS011;4354;49.832;10.746;2023-08-21T07:08:24;16.88;;;15.38;;
8632;SDS011;4354;49.832;10.746;2023-08-21T07:10:51;16.25;;;14.82;;
8632;SDS011;4354;49.832;10.746;2023-08-21T07:13:19;16.30;;;15.00;;
8632;SDS011;4354;49.832;10.746;2023-08-21T07:15:47;15.75;;;14.35;;
8632;SDS011;4354;49.832;10.746;2023-08-21T07:18:14;15.40;;;13.98;;
8632;SDS011;4354;49.832;10.746;2023-08-21T07:20:41;18.90;;;14.57;;
8632;SDS011;4354;49.832;10.746;2023-08-21T07:23:08;15.40;;;13.85;;
8632;SDS011;4354;49.832;10.746;2023-08-21T07:25:35;15.05;;;13.55;;
8632;SDS011;4354;49.832;10.746;2023-08-21T07:28:02;14.45;;;13.05;;
8632;SDS011;4354;49.832;10.746;2023-08-21T07:30:29;15.27;;;13.98;;
8632;SDS011;4354;49.832;10.746;2023-08-21T07:32:59;13.80;;;12.55;;
8632;SDS011;4354;49.832;10.746;2023-08-21T07:35:26;12.55;;;11.18;;
8632;SDS011;4354;49.832;10.746;2023-08-21T07:37:52;11.75;;;10.75;;
8632;SDS011;4354;49.832;10.746;2023-08-21T07:40:19;11.00;;;10.02;;
8632;SDS011;4354;49.832;10.746;2023-08-21T07:42:46;11.63;;;10.00;;
8632;SDS011;4354;49.832;10.746;2023-08-21T07:45:13;10.95;;;9.95;;
8632;SDS011;4354;49.832;10.746;2023-08-21T07:47:40;11.75;;;10.60;;
8632;SDS011;4354;49.832;10.746;2023-08-21T07:50:07;9.75;;;8.88;;
8632;SDS011;4354;49.832;10.746;2023-08-21T07:52:36;10.00;;;9.27;;
8632;SDS011;4354;49.832;10.746;2023-08-21T07:55:03;9.43;;;8.70;;
8632;SDS011;4354;49.832;10.746;2023-08-21T07:57:30;9.98;;;9.07;;
8632;SDS011;4354;49.832;10.746;2023-08-21T07:59:57;10.13;;;9.15;;
8632;SDS011;4354;49.832;10.746;2023-08-21T08:02:24;10.90;;;9.82;;
8632;SDS011;4354;49.832;10.746;2023-08-21T08:04:51;10.48;;;9.18;;
8632;SDS011;4354;49.832;10.746;2023-08-21T08:07:18;10.73;;;9.50;;
8632;SDS011;4354;49.832;10.746;2023-08-21T08:09:45;11.02;;;8.90;;
8632;SDS011;4354;49.832;10.746;2023-08-21T08:12:13;9.98;;;9.05;;
8632;SDS011;4354;49.832;10.746;2023-08-21T08:14:40;9.68;;;8.77;;
8632;SDS011;4354;49.832;10.746;2023-08-21T08:17:07;9.65;;;8.88;;
8632;SDS011;4354;49.832;10.746;2023-08-21T08:19:34;9.80;;;8.65;;
8632;SDS011;4354;49.832;10.746;2023-08-21T08:22:01;9.48;;;8.77;;
8632;SDS011;4354;49.832;10.746;2023-08-21T08:24:28;13.82;;;8.88;;
8632;SDS011;4354;49.832;10.746;2023-08-21T08:26:55;10.38;;;9.23;;
8632;SDS011;4354;49.832;10.746;2023-08-21T08:29:21;10.93;;;9.02;;
8632;SDS011;4354;49.832;10.746;2023-08-21T08:31:48;9.80;;;9.10;;
8632;SDS011;4354;49.832;10.746;2023-08-21T08:34:15;10.57;;;9.48;;
8632;SDS011;4354;49.832;10.746;2023-08-21T08:36:46;10.45;;;9.10;;
8632;SDS011;4354;49.832;10.746;2023-08-21T08:39:13;9.80;;;8.90;;
8632;SDS011;4354;49.832;10.746;2023-08-21T08:44:13;9.95;;;8.98;;
8632;SDS011;4354;49.832;10.746;2023-08-21T08:46:42;9.60;;;8.70;;
8632;SDS011;4354;49.832;10.746;2023-08-21T08:49:09;10.55;;;9.50;;
8632;SDS011;4354;49.832;10.746;2023-08-21T08:51:37;10.32;;;9.32;;
8632;SDS011;4354;49.832;10.746;2023-08-21T08:54:05;9.65;;;8.75;;
8632;SDS011;4354;49.832;10.746;2023-08-21T08:56:33;9.70;;;9.00;;
8632;SDS011;4354;49.832;10.746;2023-08-21T08:59:00;9.18;;;8.38;;
8632;SDS011;4354;49.832;10.746;2023-08-21T09:01:27;9.85;;;8.65;;
8632;SDS011;4354;49.832;10.746;2023-08-21T09:03:54;9.85;;;8.95;;
8632;SDS011;4354;49.832;10.746;2023-08-21T09:06:22;9.32;;;8.40;;
8632;SDS011;4354;49.832;10.746;2023-08-21T09:08:55;9.07;;;7.85;;
8632;SDS011;4354;49.832;10.746;2023-08-21T09:11:24;8.60;;;7.63;;
8632;SDS011;4354;49.832;10.746;2023-08-21T09:13:51;9.52;;;8.63;;
8632;SDS011;4354;49.832;10.746;2023-08-21T09:16:19;10.52;;;8.43;;
8632;SDS011;4354;49.832;10.746;2023-08-21T09:18:48;10.48;;;9.23;;
8632;SDS011;4354;49.832;10.746;2023-08-21T09:21:16;8.48;;;7.70;;
8632;SDS011;4354;49.832;10.746;2023-08-21T09:23:46;8.75;;;7.53;;
8632;SDS011;4354;49.832;10.746;2023-08-21T09:26:21;7.68;;;6.82;;
8632;SDS011;4354;49.832;10.746;2023-08-21T09:28:49;7.13;;;6.45;;
8632;SDS011;4354;49.832;10.746;2023-08-21T09:31:16;9.07;;;6.50;;
8632;SDS011;4354;49.832;10.746;2023-08-21T09:33:55;5.25;;;4.72;;
8632;SDS011;4354;49.832;10.746;2023-08-21T09:36:24;6.78;;;4.85;;
8632;SDS011;4354;49.832;10.746;2023-08-21T09:38:51;5.93;;;5.53;;
8632;SDS011;4354;49.832;10.746;2023-08-21T09:41:22;7.93;;;5.35;;
8632;SDS011;4354;49.832;10.746;2023-08-21T09:43:49;6.38;;;5.70;;
8632;SDS011;4354;49.832;10.746;2023-08-21T09:46:17;6.43;;;5.10;;
8632;SDS011;4354;49.832;10.746;2023-08-21T09:48:49;6.40;;;4.78;;
8632;SDS011;4354;49.832;10.746;2023-08-21T09:51:18;6.63;;;5.15;;
8632;SDS011;4354;49.832;10.746;2023-08-21T09:53:45;6.30;;;5.30;;
8632;SDS011;4354;49.832;10.746;2023-08-21T09:56:15;7.55;;;4.93;;
8632;SDS011;4354;49.832;10.746;2023-08-21T09:58:44;5.72;;;5.20;;
8632;SDS011;4354;49.832;10.746;2023-08-21T10:01:14;6.07;;;5.35;;
8632;SDS011;4354;49.832;10.746;2023-08-21T10:03:42;6.07;;;5.47;;
8632;SDS011;4354;49.832;10.746;2023-08-21T10:06:15;6.00;;;5.45;;
8632;SDS011;4354;49.832;10.746;2023-08-21T10:08:48;10.20;;;5.72;;
8632;SDS011;4354;49.832;10.746;2023-08-21T10:11:20;5.50;;;5.10;;
8632;SDS011;4354;49.832;10.746;2023-08-21T10:13:55;6.10;;;5.45;;
8632;SDS011;4354;49.832;10.746;2023-08-21T10:16:22;5.95;;;5.35;;
8632;SDS011;4354;49.832;10.746;2023-08-21T10:18:51;6.07;;;5.30;;
8632;SDS011;4354;49.832;10.746;2023-08-21T10:21:19;5.45;;;4.88;;
8632;SDS011;4354;49.832;10.746;2023-08-21T10:23:48;8.10;;;5.40;;
8632;SDS011;4354;49.832;10.746;2023-08-21T10:26:20;7.68;;;4.90;;
8632;SDS011;4354;49.832;10.746;2023-08-21T10:28:51;6.88;;;5.07;;
8632;SDS011;4354;49.832;10.746;2023-08-21T10:31:25;7.55;;;5.28;;
8632;SDS011;4354;49.832;10.746;2023-08-21T10:33:55;8.20;;;5.60;;
8632;SDS011;4354;49.832;10.746;2023-08-21T10:37:24;5.38;;;4.78;;
8632;SDS011;4354;49.832;10.746;2023-08-21T10:39:31;5.38;;;4.90;;
8632;SDS011;4354;49.832;10.746;2023-08-21T10:50:02;8.35;;;5.00;;
8632;SDS011;4354;49.832;10.746;2023-08-21T10:52:37;6.55;;;5.00;;
8632;SDS011;4354;49.832;10.746;2023-08-21T10:55:09;6.03;;;4.80;;
8632;SDS011;4354;49.832;10.746;2023-08-21T10:57:38;4.97;;;4.57;;
8632;SDS011;4354;49.832;10.746;2023-08-21T11:00:10;9.05;;;5.05;;
8632;SDS011;4354;49.832;10.746;2023-08-21T11:02:42;5.50;;;4.95;;
8632;SDS011;4354;49.832;10.746;2023-08-21T11:05:11;5.25;;;4.63;;
8632;SDS011;4354;49.832;10.746;2023-08-21T11:10:07;7.45;;;4.80;;
8632;SDS011;4354;49.832;10.746;2023-08-21T11:12:37;6.35;;;4.25;;
8632;SDS011;4354;49.832;10.746;2023-08-21T11:15:05;6.35;;;4.53;;
8632;SDS011;4354;49.832;10.746;2023-08-21T11:17:32;6.35;;;4.70;;
8632;SDS011;4354;49.832;10.746;2023-08-21T11:20:00;5.25;;;4.68;;
8632;SDS011;4354;49.832;10.746;2023-08-21T11:22:31;5.65;;;5.05;;
8632;SDS011;4354;49.832;10.746;2023-08-21T11:24:58;5.65;;;4.80;;
8632;SDS011;4354;49.832;10.746;2023-08-21T11:27:25;5.53;;;4.38;;
8632;SDS011;4354;49.832;10.746;2023-08-21T11:29:52;6.95;;;4.90;;
8632;SDS011;4354;49.832;10.746;2023-08-21T11:32:22;4.78;;;4.35;;
8632;SDS011;4354;49.832;10.746;2023-08-21T11:34:53;7.22;;;5.10;;
8632;SDS011;4354;49.832;10.746;2023-08-21T11:37:22;7.40;;;5.38;;
8632;SDS011;4354;49.832;10.746;2023-08-21T11:39:51;9.10;;;4.55;;
8632;SDS011;4354;49.832;10.746;2023-08-21T11:42:28;5.30;;;4.82;;
8632;SDS011;4354;49.832;10.746;2023-08-21T11:44:56;4.97;;;4.43;;
8632;SDS011;4354;49.832;10.746;2023-08-21T11:47:23;7.22;;;4.85;;
8632;SDS011;4354;49.832;10.746;2023-08-21T11:49:55;5.20;;;4.80;;
8632;SDS011;4354;49.832;10.746;2023-08-21T11:52:23;5.80;;;5.00;;
8632;SDS011;4354;49.832;10.746;2023-08-21T11:54:53;5.75;;;5.00;;
8632;SDS011;4354;49.832;10.746;2023-08-21T11:57:20;7.88;;;5.05;;
8632;SDS011;4354;49.832;10.746;2023-08-21T11:59:51;5.90;;;5.00;;
8632;SDS011;4354;49.832;10.746;2023-08-21T12:02:22;5.32;;;4.93;;
8632;SDS011;4354;49.832;10.746;2023-08-21T12:05:03;6.25;;;5.13;;
8632;SDS011;4354;49.832;10.746;2023-08-21T12:07:34;5.15;;;4.43;;
8632;SDS011;4354;49.832;10.746;2023-08-21T12:10:01;6.63;;;5.15;;
8632;SDS011;4354;49.832;10.746;2023-08-21T12:12:28;5.13;;;4.60;;
8632;SDS011;4354;49.832;10.746;2023-08-21T12:14:55;7.38;;;4.97;;
8632;SDS011;4354;49.832;10.746;2023-08-21T12:17:22;9.77;;;5.30;;
8632;SDS011;4354;49.832;10.746;2023-08-21T12:19:49;6.97;;;5.70;;
8632;SDS011;4354;49.832;10.746;2023-08-21T12:22:16;6.22;;;4.90;;
8632;SDS011;4354;49.832;10.746;2023-08-21T12:24:44;7.97;;;5.18;;
8632;SDS011;4354;49.832;10.746;2023-08-21T12:27:11;6.57;;;5.00;;
8632;SDS011;4354;49.832;10.746;2023-08-21T12:29:38;7.00;;;5.28;;
8632;SDS011;4354;49.832;10.746;2023-08-21T12:32:04;5.80;;;4.85;;
8632;SDS011;4354;49.832;10.746;2023-08-21T12:34:32;8.88;;;4.97;;
8632;SDS011;4354;49.832;10.746;2023-08-21T12:36:58;6.07;;;4.72;;
8632;SDS011;4354;49.832;10.746;2023-08-21T12:39:25;7.47;;;5.13;;
8632;SDS011;4354;49.832;10.746;2023-08-21T12:41:53;7.70;;;4.85;;
8632;SDS011;4354;49.832;10.746;2023-08-21T12:44:20;5.55;;;4.22;;
8632;SDS011;4354;49.832;10.746;2023-08-21T12:46:47;6.65;;;4.63;;
8632;SDS011;4354;49.832;10.746;2023-08-21T12:49:14;6.18;;;4.50;;
8632;SDS011;4354;49.832;10.746;2023-08-21T12:51:40;4.80;;;4.40;;
8632;SDS011;4354;49.832;10.746;2023-08-21T12:54:07;4.65;;;4.32;;
8632;SDS011;4354;49.832;10.746;2023-08-21T12:56:35;4.68;;;4.28;;
8632;SDS011;4354;49.832;10.746;2023-08-21T12:59:02;6.50;;;4.20;;
8632;SDS011;4354;49.832;10.746;2023-08-21T13:01:29;5.43;;;4.47;;
8632;SDS011;4354;49.832;10.746;2023-08-21T13:03:58;6.63;;;4.75;;
8632;SDS011;4354;49.832;10.746;2023-08-21T13:06:25;6.65;;;4.40;;
8632;SDS011;4354;49.832;10.746;2023-08-21T13:08:52;4.75;;;4.18;;
8632;SDS011;4354;49.832;10.746;2023-08-21T13:11:20;4.50;;;4.10;;
8632;SDS011;4354;49.832;10.746;2023-08-21T13:13:47;5.22;;;3.95;;
8632;SDS011;4354;49.832;10.746;2023-08-21T13:16:14;5.40;;;3.92;;
8632;SDS011;4354;49.832;10.746;2023-08-21T13:18:41;4.85;;;4.45;;
8632;SDS011;4354;49.832;10.746;2023-08-21T13:21:08;6.68;;;4.43;;
8632;SDS011;4354;49.832;10.746;2023-08-21T13:23:35;6.95;;;4.45;;
8632;SDS011;4354;49.832;10.746;2023-08-21T13:26:02;6.93;;;4.35;;
8632;SDS011;4354;49.832;10.746;2023-08-21T13:28:29;5.68;;;4.70;;
8632;SDS011;4354;49.832;10.746;2023-08-21T13:30:57;5.90;;;4.22;;
8632;SDS011;4354;49.832;10.746;2023-08-21T13:33:24;9.07;;;4.45;;
8632;SDS011;4354;49.832;10.746;2023-08-21T13:35:52;4.53;;;4.15;;
8632;SDS011;4354;49.832;10.746;2023-08-21T13:38:18;4.53;;;3.90;;
8632;SDS011;4354;49.832;10.746;2023-08-21T13:40:45;4.60;;;3.53;;
8632;SDS011;4354;49.832;10.746;2023-08-21T13:43:12;4.15;;;3.72;;
8632;SDS011;4354;49.832;10.746;2023-08-21T13:45:39;4.82;;;4.28;;
8632;SDS011;4354;49.832;10.746;2023-08-21T13:48:09;8.20;;;4.40;;
8632;SDS011;4354;49.832;10.746;2023-08-21T13:50:36;5.90;;;4.45;;
8632;SDS011;4354;49.832;10.746;2023-08-21T13:53:02;5.05;;;4.20;;
8632;SDS011;4354;49.832;10.746;2023-08-21T13:55:29;5.50;;;3.72;;
8632;SDS011;4354;49.832;10.746;2023-08-21T13:57:56;6.85;;;3.92;;
8632;SDS011;4354;49.832;10.746;2023-08-21T14:02:51;5.50;;;3.60;;
8632;SDS011;4354;49.832;10.746;2023-08-21T14:05:18;7.63;;;4.68;;
8632;SDS011;4354;49.832;10.746;2023-08-21T14:07:46;5.22;;;4.05;;
8632;SDS011;4354;49.832;10.746;2023-08-21T14:10:13;6.80;;;4.25;;
8632;SDS011;4354;49.832;10.746;2023-08-21T14:12:41;5.90;;;4.22;;
8632;SDS011;4354;49.832;10.746;2023-08-21T14:15:08;4.75;;;4.18;;
8632;SDS011;4354;49.832;10.746;2023-08-21T14:17:36;4.55;;;4.15;;
8632;SDS011;4354;49.832;10.746;2023-08-21T14:20:05;5.00;;;4.47;;
8632;SDS011;4354;49.832;10.746;2023-08-21T14:22:33;6.55;;;4.53;;
8632;SDS011;4354;49.832;10.746;2023-08-21T14:25:00;8.75;;;4.43;;
8632;SDS011;4354;49.832;10.746;2023-08-21T14:27:27;5.53;;;4.05;;
8632;SDS011;4354;49.832;10.746;2023-08-21T14:29:54;7.00;;;4.70;;
8632;SDS011;4354;49.832;10.746;2023-08-21T14:32:20;8.07;;;4.88;;
8632;SDS011;4354;49.832;10.746;2023-08-21T14:34:47;4.65;;;4.03;;
8632;SDS011;4354;49.832;10.746;2023-08-21T14:37:14;5.82;;;3.83;;
8632;SDS011;4354;49.832;10.746;2023-08-21T14:39:42;4.63;;;4.22;;
8632;SDS011;4354;49.832;10.746;2023-08-21T14:42:09;4.18;;;3.80;;
8632;SDS011;4354;49.832;10.746;2023-08-21T14:44:37;4.40;;;4.05;;
8632;SDS011;4354;49.832;10.746;2023-08-21T14:47:05;4.35;;;3.95;;
8632;SDS011;4354;49.832;10.746;2023-08-21T14:49:34;4.47;;;4.03;;
8632;SDS011;4354;49.832;10.746;2023-08-21T14:52:01;4.97;;;4.35;;
8632;SDS011;4354;49.832;10.746;2023-08-21T14:54:28;4.53;;;4.10;;
8632;SDS011;4354;49.832;10.746;2023-08-21T14:56:55;4.88;;;4.40;;
8632;SDS011;4354;49.832;10.746;2023-08-21T14:59:22;5.80;;;3.80;;
8632;SDS011;4354;49.832;10.746;2023-08-21T15:01:49;4.65;;;4.10;;
8632;SDS011;4354;49.832;10.746;2023-08-21T15:04:17;7.30;;;4.50;;
8632;SDS011;4354;49.832;10.746;2023-08-21T15:06:44;4.70;;;4.20;;
8632;SDS011;4354;49.832;10.746;2023-08-21T15:09:11;5.45;;;4.38;;
8632;SDS011;4354;49.832;10.746;2023-08-21T15:11:39;6.38;;;4.25;;